Ozawkie, Kansas
Current Conditions -  °F | °C
As of 3:53 PM on Monday 24 Nov 2014 (Local Time) from KTOP Reporting Station
Clear Clear  
Wind Chill: 35°   Ceiling: Unl
Heat Index: 43°   Visibility: 10mi
Dew Point: 22°   Wind: 18mph
Humidity: 43%   Direction: 310°NW
Pressure: 29.9"   Gusts: 25mph
Location:  39.23°N, 95.47°W
Report Text: KTOP 242153Z 31016G22KT 10SM CLR 06/M06 A2990 RMK AO2 PK WND 26029/2108 SLP131 T00611056
Loading
Personal Weather Stations






























Interactive Weather Map New forecast layout! Learn more

10-Day Weather Forecast

Advertisements
Track Severe Weather on mobile